KFTW/FTW METAR and TAF weather

Enter ICAO airport designator
Station Type Date Time Source
KFTW METAR 2022/05/24 11:53 UTC NOAA

KFTW 241153Z 12011KT 7SM OVC009 19/18 A2978 RMK AO2 RAE16 SLP078 P0001 60006 70017 T01890183 10194 20183 58016


Station Type Date Time Source
KFTW Decoded METAR 2022/05/24 11:53 UTC NOAA

FORT WORTH MEACHAM INTERNATIONAL ., TX, United States (KFTW) 32-50N 097-22W 214M
May 24, 2022 - 07:53 AM EDT / 2022.05.24 1153 UTC
Wind: from the ESE (120 degrees) at 13 MPH (11 KT):0
Visibility: 7 mile(s):0
Sky conditions: overcast
Precipitation last hour: 0.01 inches
Temperature: 66.0 F (18.9 C)
Dew Point: 64.9 F (18.3 C)
Relative Humidity: 96%
Pressure (altimeter): 29.78 in. Hg (1008 hPa)
Pressure tendency: 0.05 inches (1.6 hPa) lower than three hours ago
ob: KFTW 241153Z 12011KT 7SM OVC009 19/18 A2978 RMK AO2 RAE16 SLP078 P0001 60006 70017 T01890183 10194 20183 58016
cycle: 12

Station Type Date Time Source
KFTW TAF 2022/05/24 12:22 UTC NOAA

TAF KFTW 241120Z 2412/2512 13012KT P6SM VCSH BKN009
FM241600 16015G25KT P6SM OVC025
FM242000 17016KT P6SM VCTS BKN035CB
TEMPO 2423/2503 31015G25KT 2SM +TSRA BKN020CB
FM250600 31015KT 6SM -RA BKN025
FM250900 30010KT P6SM BKN015

Example: see airport list